sensor_id;sensor_type;location;lat;lon;timestamp;P1;durP1;ratioP1;P2;durP2;ratioP2
59008;SDS011;44794;42.652;23.318;2022-09-01T00:01:53;35.17;;;25.30;;
59008;SDS011;44794;42.652;23.318;2022-09-01T00:04:20;38.75;;;25.17;;
59008;SDS011;44794;42.652;23.318;2022-09-01T00:06:49;40.05;;;29.23;;
59008;SDS011;44794;42.652;23.318;2022-09-01T00:09:17;44.88;;;32.00;;
59008;SDS011;44794;42.652;23.318;2022-09-01T00:11:45;46.50;;;31.50;;
59008;SDS011;44794;42.652;23.318;2022-09-01T00:14:12;46.85;;;31.95;;
59008;SDS011;44794;42.652;23.318;2022-09-01T00:16:38;48.97;;;33.70;;
59008;SDS011;44794;42.652;23.318;2022-09-01T00:19:04;51.25;;;33.83;;
59008;SDS011;44794;42.652;23.318;2022-09-01T00:21:31;49.45;;;34.42;;
59008;SDS011;44794;42.652;23.318;2022-09-01T00:23:59;48.05;;;33.97;;
59008;SDS011;44794;42.652;23.318;2022-09-01T00:26:26;47.67;;;33.70;;
59008;SDS011;44794;42.652;23.318;2022-09-01T00:28:52;49.28;;;33.22;;
59008;SDS011;44794;42.652;23.318;2022-09-01T00:31:18;47.90;;;34.10;;
59008;SDS011;44794;42.652;23.318;2022-09-01T00:33:45;48.28;;;34.00;;
59008;SDS011;44794;42.652;23.318;2022-09-01T00:36:11;47.28;;;32.20;;
59008;SDS011;44794;42.652;23.318;2022-09-01T00:38:37;48.63;;;34.75;;
59008;SDS011;44794;42.652;23.318;2022-09-01T00:41:03;47.90;;;32.10;;
59008;SDS011;44794;42.652;23.318;2022-09-01T00:46:04;41.15;;;30.35;;
59008;SDS011;44794;42.652;23.318;2022-09-01T00:48:31;44.90;;;30.50;;
59008;SDS011;44794;42.652;23.318;2022-09-01T00:50:56;38.70;;;28.17;;
59008;SDS011;44794;42.652;23.318;2022-09-01T00:53:23;43.67;;;30.42;;
59008;SDS011;44794;42.652;23.318;2022-09-01T00:55:49;44.20;;;31.15;;
59008;SDS011;44794;42.652;23.318;2022-09-01T00:58:14;38.75;;;29.33;;
59008;SDS011;44794;42.652;23.318;2022-09-01T01:00:40;40.33;;;29.02;;
59008;SDS011;44794;42.652;23.318;2022-09-01T01:03:10;41.55;;;29.45;;
59008;SDS011;44794;42.652;23.318;2022-09-01T01:05:37;42.77;;;29.80;;
59008;SDS011;44794;42.652;23.318;2022-09-01T01:08:15;43.30;;;28.77;;
59008;SDS011;44794;42.652;23.318;2022-09-01T01:10:42;38.97;;;28.08;;
59008;SDS011;44794;42.652;23.318;2022-09-01T01:13:12;46.45;;;30.52;;
59008;SDS011;44794;42.652;23.318;2022-09-01T01:15:41;45.28;;;31.38;;
59008;SDS011;44794;42.652;23.318;2022-09-01T01:18:11;43.40;;;29.77;;
59008;SDS011;44794;42.652;23.318;2022-09-01T01:20:38;41.45;;;29.67;;
59008;SDS011;44794;42.652;23.318;2022-09-01T01:23:39;45.05;;;30.67;;
59008;SDS011;44794;42.652;23.318;2022-09-01T01:26:15;43.92;;;30.02;;
59008;SDS011;44794;42.652;23.318;2022-09-01T01:28:41;44.15;;;30.42;;
59008;SDS011;44794;42.652;23.318;2022-09-01T01:31:12;41.38;;;29.35;;
59008;SDS011;44794;42.652;23.318;2022-09-01T01:36:13;43.20;;;29.65;;
59008;SDS011;44794;42.652;23.318;2022-09-01T01:38:47;43.63;;;29.63;;
59008;SDS011;44794;42.652;23.318;2022-09-01T01:41:15;43.78;;;29.08;;
59008;SDS011;44794;42.652;23.318;2022-09-01T01:43:43;43.58;;;30.90;;
59008;SDS011;44794;42.652;23.318;2022-09-01T01:46:10;48.47;;;32.33;;
59008;SDS011;44794;42.652;23.318;2022-09-01T01:48:37;45.60;;;31.98;;
59008;SDS011;44794;42.652;23.318;2022-09-01T01:51:05;48.70;;;32.47;;
59008;SDS011;44794;42.652;23.318;2022-09-01T01:53:32;52.20;;;34.58;;
59008;SDS011;44794;42.652;23.318;2022-09-01T01:55:59;49.70;;;33.83;;
59008;SDS011;44794;42.652;23.318;2022-09-01T01:58:25;51.35;;;34.58;;
59008;SDS011;44794;42.652;23.318;2022-09-01T02:00:53;52.88;;;34.97;;
59008;SDS011;44794;42.652;23.318;2022-09-01T02:03:21;54.83;;;36.28;;
59008;SDS011;44794;42.652;23.318;2022-09-01T02:05:50;55.78;;;36.35;;
59008;SDS011;44794;42.652;23.318;2022-09-01T02:08:18;54.03;;;35.17;;
59008;SDS011;44794;42.652;23.318;2022-09-01T02:10:49;55.60;;;36.35;;
59008;SDS011;44794;42.652;23.318;2022-09-01T02:13:16;62.25;;;38.05;;
59008;SDS011;44794;42.652;23.318;2022-09-01T02:15:48;63.00;;;39.35;;
59008;SDS011;44794;42.652;23.318;2022-09-01T02:18:22;66.32;;;40.00;;
59008;SDS011;44794;42.652;23.318;2022-09-01T02:20:55;56.90;;;35.75;;
59008;SDS011;44794;42.652;23.318;2022-09-01T02:23:22;62.33;;;37.88;;
59008;SDS011;44794;42.652;23.318;2022-09-01T02:25:50;62.13;;;39.33;;
59008;SDS011;44794;42.652;23.318;2022-09-01T02:28:18;68.97;;;39.03;;
59008;SDS011;44794;42.652;23.318;2022-09-01T02:30:46;65.30;;;39.00;;
59008;SDS011;44794;42.652;23.318;2022-09-01T02:33:16;68.78;;;40.75;;
59008;SDS011;44794;42.652;23.318;2022-09-01T02:35:44;65.15;;;39.13;;
59008;SDS011;44794;42.652;23.318;2022-09-01T02:38:10;68.68;;;40.95;;
59008;SDS011;44794;42.652;23.318;2022-09-01T02:40:38;57.80;;;36.80;;
59008;SDS011;44794;42.652;23.318;2022-09-01T02:43:05;50.85;;;35.33;;
59008;SDS011;44794;42.652;23.318;2022-09-01T02:45:32;53.80;;;34.08;;
59008;SDS011;44794;42.652;23.318;2022-09-01T02:47:57;52.50;;;34.30;;
59008;SDS011;44794;42.652;23.318;2022-09-01T02:50:23;51.80;;;34.85;;
59008;SDS011;44794;42.652;23.318;2022-09-01T02:52:49;51.80;;;33.95;;
59008;SDS011;44794;42.652;23.318;2022-09-01T02:55:18;66.63;;;39.50;;
59008;SDS011;44794;42.652;23.318;2022-09-01T02:57:48;68.85;;;40.58;;
59008;SDS011;44794;42.652;23.318;2022-09-01T03:00:15;56.15;;;35.83;;
59008;SDS011;44794;42.652;23.318;2022-09-01T03:02:50;54.33;;;35.45;;
59008;SDS011;44794;42.652;23.318;2022-09-01T03:05:17;57.60;;;35.10;;
59008;SDS011;44794;42.652;23.318;2022-09-01T03:07:50;60.50;;;36.67;;
59008;SDS011;44794;42.652;23.318;2022-09-01T03:10:20;60.53;;;35.97;;
59008;SDS011;44794;42.652;23.318;2022-09-01T03:12:48;66.07;;;38.58;;
59008;SDS011;44794;42.652;23.318;2022-09-01T03:15:14;64.75;;;37.90;;
59008;SDS011;44794;42.652;23.318;2022-09-01T03:17:39;71.45;;;41.03;;
59008;SDS011;44794;42.652;23.318;2022-09-01T03:20:06;72.30;;;41.65;;
59008;SDS011;44794;42.652;23.318;2022-09-01T03:22:32;74.13;;;41.42;;
59008;SDS011;44794;42.652;23.318;2022-09-01T03:24:58;81.18;;;43.35;;
59008;SDS011;44794;42.652;23.318;2022-09-01T03:27:23;64.13;;;39.63;;
59008;SDS011;44794;42.652;23.318;2022-09-01T03:29:49;71.10;;;41.90;;
59008;SDS011;44794;42.652;23.318;2022-09-01T03:32:15;68.95;;;40.40;;
59008;SDS011;44794;42.652;23.318;2022-09-01T03:34:40;64.38;;;38.58;;
59008;SDS011;44794;42.652;23.318;2022-09-01T03:37:06;71.43;;;41.35;;
59008;SDS011;44794;42.652;23.318;2022-09-01T03:39:32;76.22;;;41.88;;
59008;SDS011;44794;42.652;23.318;2022-09-01T03:41:58;73.38;;;41.78;;
59008;SDS011;44794;42.652;23.318;2022-09-01T03:44:24;69.57;;;40.60;;
59008;SDS011;44794;42.652;23.318;2022-09-01T03:46:50;64.53;;;38.72;;
59008;SDS011;44794;42.652;23.318;2022-09-01T03:49:16;65.10;;;39.35;;
59008;SDS011;44794;42.652;23.318;2022-09-01T03:51:49;68.72;;;40.47;;
59008;SDS011;44794;42.652;23.318;2022-09-01T03:54:18;61.92;;;37.08;;
59008;SDS011;44794;42.652;23.318;2022-09-01T03:56:44;59.92;;;36.33;;
59008;SDS011;44794;42.652;23.318;2022-09-01T03:59:09;59.22;;;36.50;;
59008;SDS011;44794;42.652;23.318;2022-09-01T04:01:40;58.83;;;36.33;;
59008;SDS011;44794;42.652;23.318;2022-09-01T04:04:08;61.78;;;37.78;;
59008;SDS011;44794;42.652;23.318;2022-09-01T04:06:38;67.00;;;40.80;;
59008;SDS011;44794;42.652;23.318;2022-09-01T04:09:04;68.65;;;39.70;;
59008;SDS011;44794;42.652;23.318;2022-09-01T04:11:30;73.97;;;41.03;;
59008;SDS011;44794;42.652;23.318;2022-09-01T04:13:56;71.35;;;41.53;;
59008;SDS011;44794;42.652;23.318;2022-09-01T04:16:23;67.07;;;40.08;;
59008;SDS011;44794;42.652;23.318;2022-09-01T04:19:16;67.15;;;40.30;;
59008;SDS011;44794;42.652;23.318;2022-09-01T04:21:50;60.60;;;36.28;;
59008;SDS011;44794;42.652;23.318;2022-09-01T04:24:21;61.10;;;36.85;;
59008;SDS011;44794;42.652;23.318;2022-09-01T04:26:48;58.97;;;36.00;;
59008;SDS011;44794;42.652;23.318;2022-09-01T04:29:16;55.25;;;36.60;;
59008;SDS011;44794;42.652;23.318;2022-09-01T04:32:12;50.60;;;33.88;;
59008;SDS011;44794;42.652;23.318;2022-09-01T04:34:37;49.58;;;32.92;;
59008;SDS011;44794;42.652;23.318;2022-09-01T04:37:11;48.28;;;32.05;;
59008;SDS011;44794;42.652;23.318;2022-09-01T04:39:39;52.45;;;32.28;;
59008;SDS011;44794;42.652;23.318;2022-09-01T04:42:12;46.83;;;29.88;;
59008;SDS011;44794;42.652;23.318;2022-09-01T04:44:38;54.15;;;31.05;;
59008;SDS011;44794;42.652;23.318;2022-09-01T04:47:04;46.63;;;28.42;;
59008;SDS011;44794;42.652;23.318;2022-09-01T04:49:34;42.05;;;28.50;;
59008;SDS011;44794;42.652;23.318;2022-09-01T04:52:02;43.40;;;28.55;;
59008;SDS011;44794;42.652;23.318;2022-09-01T04:54:28;45.17;;;27.35;;
59008;SDS011;44794;42.652;23.318;2022-09-01T04:56:54;38.67;;;26.13;;
59008;SDS011;44794;42.652;23.318;2022-09-01T04:59:20;37.97;;;26.55;;
59008;SDS011;44794;42.652;23.318;2022-09-01T05:01:48;41.22;;;26.52;;
59008;SDS011;44794;42.652;23.318;2022-09-01T05:04:16;34.88;;;25.75;;
59008;SDS011;44794;42.652;23.318;2022-09-01T05:06:51;39.50;;;25.58;;
59008;SDS011;44794;42.652;23.318;2022-09-01T05:09:27;45.00;;;26.60;;
59008;SDS011;44794;42.652;23.318;2022-09-01T05:11:54;38.53;;;25.65;;
59008;SDS011;44794;42.652;23.318;2022-09-01T05:14:21;37.78;;;25.95;;
59008;SDS011;44794;42.652;23.318;2022-09-01T05:16:47;34.95;;;25.70;;
59008;SDS011;44794;42.652;23.318;2022-09-01T05:19:14;41.28;;;26.45;;
59008;SDS011;44794;42.652;23.318;2022-09-01T05:21:42;35.42;;;25.95;;
59008;SDS011;44794;42.652;23.318;2022-09-01T05:24:14;32.38;;;24.75;;
59008;SDS011;44794;42.652;23.318;2022-09-01T05:26:43;43.75;;;25.63;;
59008;SDS011;44794;42.652;23.318;2022-09-01T05:29:11;39.03;;;25.42;;
59008;SDS011;44794;42.652;23.318;2022-09-01T05:31:40;41.60;;;25.90;;
59008;SDS011;44794;42.652;23.318;2022-09-01T05:34:07;39.15;;;26.00;;
59008;SDS011;44794;42.652;23.318;2022-09-01T05:36:34;36.42;;;25.35;;
59008;SDS011;44794;42.652;23.318;2022-09-01T05:39:02;33.30;;;23.90;;
59008;SDS011;44794;42.652;23.318;2022-09-01T05:41:29;41.95;;;23.38;;
59008;SDS011;44794;42.652;23.318;2022-09-01T05:43:55;40.65;;;21.90;;
59008;SDS011;44794;42.652;23.318;2022-09-01T05:46:21;42.90;;;22.90;;
59008;SDS011;44794;42.652;23.318;2022-09-01T05:48:50;29.73;;;22.43;;
59008;SDS011;44794;42.652;23.318;2022-09-01T05:51:18;34.17;;;21.50;;
59008;SDS011;44794;42.652;23.318;2022-09-01T05:53:46;32.20;;;22.02;;
59008;SDS011;44794;42.652;23.318;2022-09-01T05:56:17;27.30;;;20.98;;
59008;SDS011;44794;42.652;23.318;2022-09-01T05:58:43;24.55;;;19.88;;
59008;SDS011;44794;42.652;23.318;2022-09-01T06:01:17;22.05;;;15.80;;
59008;SDS011;44794;42.652;23.318;2022-09-01T06:03:47;22.42;;;15.95;;
59008;SDS011;44794;42.652;23.318;2022-09-01T06:06:16;18.60;;;14.18;;
59008;SDS011;44794;42.652;23.318;2022-09-01T06:08:41;18.83;;;13.45;;
59008;SDS011;44794;42.652;23.318;2022-09-01T06:11:09;19.27;;;13.57;;
59008;SDS011;44794;42.652;23.318;2022-09-01T06:13:38;17.45;;;14.35;;
59008;SDS011;44794;42.652;23.318;2022-09-01T06:16:06;20.95;;;13.80;;
59008;SDS011;44794;42.652;23.318;2022-09-01T06:18:34;18.50;;;13.40;;
59008;SDS011;44794;42.652;23.318;2022-09-01T06:21:02;24.98;;;14.32;;
59008;SDS011;44794;42.652;23.318;2022-09-01T06:23:29;18.50;;;13.55;;
59008;SDS011;44794;42.652;23.318;2022-09-01T06:25:55;14.20;;;12.70;;
59008;SDS011;44794;42.652;23.318;2022-09-01T06:28:21;20.15;;;13.57;;
59008;SDS011;44794;42.652;23.318;2022-09-01T06:30:47;20.42;;;13.65;;
59008;SDS011;44794;42.652;23.318;2022-09-01T06:33:14;19.80;;;14.20;;
59008;SDS011;44794;42.652;23.318;2022-09-01T06:35:40;26.58;;;16.92;;
59008;SDS011;44794;42.652;23.318;2022-09-01T06:38:09;28.08;;;19.60;;
59008;SDS011;44794;42.652;23.318;2022-09-01T06:40:36;24.90;;;20.20;;
59008;SDS011;44794;42.652;23.318;2022-09-01T06:43:04;28.95;;;20.20;;
59008;SDS011;44794;42.652;23.318;2022-09-01T06:45:38;28.35;;;20.23;;
59008;SDS011;44794;42.652;23.318;2022-09-01T06:48:06;29.13;;;21.63;;
59008;SDS011;44794;42.652;23.318;2022-09-01T06:50:32;31.25;;;22.45;;
59008;SDS011;44794;42.652;23.318;2022-09-01T06:52:58;30.45;;;22.42;;
59008;SDS011;44794;42.652;23.318;2022-09-01T06:55:35;32.65;;;22.40;;
59008;SDS011;44794;42.652;23.318;2022-09-01T06:58:07;32.80;;;23.33;;
59008;SDS011;44794;42.652;23.318;2022-09-01T07:00:36;35.20;;;23.98;;
59008;SDS011;44794;42.652;23.318;2022-09-01T07:05:34;33.92;;;23.02;;
59008;SDS011;44794;42.652;23.318;2022-09-01T07:08:03;37.30;;;24.80;;
59008;SDS011;44794;42.652;23.318;2022-09-01T07:10:38;39.05;;;24.08;;
59008;SDS011;44794;42.652;23.318;2022-09-01T07:13:09;36.65;;;23.52;;
59008;SDS011;44794;42.652;23.318;2022-09-01T07:15:42;35.20;;;24.17;;
59008;SDS011;44794;42.652;23.318;2022-09-01T07:18:09;37.35;;;23.70;;
59008;SDS011;44794;42.652;23.318;2022-09-01T07:20:39;36.38;;;25.27;;
59008;SDS011;44794;42.652;23.318;2022-09-01T07:23:06;37.22;;;24.88;;
59008;SDS011;44794;42.652;23.318;2022-09-01T07:25:37;36.80;;;24.48;;
59008;SDS011;44794;42.652;23.318;2022-09-01T07:28:05;32.28;;;24.48;;
59008;SDS011;44794;42.652;23.318;2022-09-01T07:30:30;35.83;;;24.77;;
59008;SDS011;44794;42.652;23.318;2022-09-01T07:32:57;33.42;;;24.05;;
59008;SDS011;44794;42.652;23.318;2022-09-01T07:35:23;36.17;;;26.08;;
59008;SDS011;44794;42.652;23.318;2022-09-01T07:37:49;37.90;;;26.85;;
59008;SDS011;44794;42.652;23.318;2022-09-01T07:40:16;39.00;;;27.45;;
59008;SDS011;44794;42.652;23.318;2022-09-01T07:42:46;42.38;;;29.77;;
59008;SDS011;44794;42.652;23.318;2022-09-01T07:45:13;48.58;;;28.77;;
59008;SDS011;44794;42.652;23.318;2022-09-01T07:47:41;45.92;;;27.35;;
59008;SDS011;44794;42.652;23.318;2022-09-01T07:50:09;42.10;;;28.20;;
59008;SDS011;44794;42.652;23.318;2022-09-01T07:52:39;41.45;;;26.23;;
59008;SDS011;44794;42.652;23.318;2022-09-01T07:55:10;39.60;;;25.92;;
59008;SDS011;44794;42.652;23.318;2022-09-01T07:57:38;36.58;;;26.30;;
59008;SDS011;44794;42.652;23.318;2022-09-01T08:00:07;42.90;;;28.08;;
59008;SDS011;44794;42.652;23.318;2022-09-01T08:02:34;46.58;;;27.90;;
59008;SDS011;44794;42.652;23.318;2022-09-01T08:05:04;41.10;;;28.45;;
59008;SDS011;44794;42.652;23.318;2022-09-01T08:07:36;43.47;;;28.10;;
59008;SDS011;44794;42.652;23.318;2022-09-01T08:10:02;52.13;;;29.55;;
59008;SDS011;44794;42.652;23.318;2022-09-01T08:12:31;46.28;;;29.80;;
59008;SDS011;44794;42.652;23.318;2022-09-01T08:14:58;39.83;;;27.40;;
59008;SDS011;44794;42.652;23.318;2022-09-01T08:17:25;37.00;;;26.80;;
59008;SDS011;44794;42.652;23.318;2022-09-01T08:19:51;42.30;;;26.17;;
59008;SDS011;44794;42.652;23.318;2022-09-01T08:22:17;45.42;;;27.50;;
59008;SDS011;44794;42.652;23.318;2022-09-01T08:24:47;40.60;;;27.67;;
59008;SDS011;44794;42.652;23.318;2022-09-01T08:27:13;37.90;;;24.00;;
59008;SDS011;44794;42.652;23.318;2022-09-01T08:29:38;32.05;;;22.85;;
59008;SDS011;44794;42.652;23.318;2022-09-01T08:32:04;38.97;;;25.35;;
59008;SDS011;44794;42.652;23.318;2022-09-01T08:34:31;36.92;;;25.55;;
59008;SDS011;44794;42.652;23.318;2022-09-01T08:36:57;36.03;;;24.98;;
59008;SDS011;44794;42.652;23.318;2022-09-01T08:39:22;36.38;;;25.23;;
59008;SDS011;44794;42.652;23.318;2022-09-01T08:47:04;34.45;;;26.13;;
59008;SDS011;44794;42.652;23.318;2022-09-01T08:49:32;36.28;;;25.20;;
59008;SDS011;44794;42.652;23.318;2022-09-01T08:54:47;39.80;;;25.40;;
59008;SDS011;44794;42.652;23.318;2022-09-01T08:57:23;36.13;;;25.60;;
59008;SDS011;44794;42.652;23.318;2022-09-01T08:59:59;40.08;;;26.85;;
59008;SDS011;44794;42.652;23.318;2022-09-01T09:18:24;37.92;;;25.60;;
59008;SDS011;44794;42.652;23.318;2022-09-01T09:21:06;38.28;;;24.77;;
59008;SDS011;44794;42.652;23.318;2022-09-01T09:23:40;36.53;;;25.43;;
59008;SDS011;44794;42.652;23.318;2022-09-01T09:26:10;36.35;;;25.50;;
59008;SDS011;44794;42.652;23.318;2022-09-01T09:28:36;33.03;;;23.60;;
59008;SDS011;44794;42.652;23.318;2022-09-01T09:33:54;37.40;;;24.10;;
59008;SDS011;44794;42.652;23.318;2022-09-01T09:36:23;34.35;;;22.65;;
59008;SDS011;44794;42.652;23.318;2022-09-01T09:39:06;37.10;;;23.63;;
59008;SDS011;44794;42.652;23.318;2022-09-01T09:41:34;37.83;;;22.40;;
59008;SDS011;44794;42.652;23.318;2022-09-01T09:46:53;26.13;;;19.92;;
59008;SDS011;44794;42.652;23.318;2022-09-01T09:51:52;27.25;;;18.40;;
59008;SDS011;44794;42.652;23.318;2022-09-01T09:54:22;23.50;;;18.45;;
59008;SDS011;44794;42.652;23.318;2022-09-01T09:56:48;25.75;;;18.58;;
59008;SDS011;44794;42.652;23.318;2022-09-01T10:05:00;23.50;;;18.45;;
59008;SDS011;44794;42.652;23.318;2022-09-01T10:07:47;26.92;;;18.25;;
59008;SDS011;44794;42.652;23.318;2022-09-01T10:13:21;25.05;;;17.40;;
59008;SDS011;44794;42.652;23.318;2022-09-01T10:15:55;23.25;;;18.15;;
59008;SDS011;44794;42.652;23.318;2022-09-01T10:18:31;29.08;;;18.40;;
59008;SDS011;44794;42.652;23.318;2022-09-01T10:21:02;27.58;;;16.75;;
59008;SDS011;44794;42.652;23.318;2022-09-01T10:23:33;29.05;;;17.55;;
59008;SDS011;44794;42.652;23.318;2022-09-01T10:26:06;21.98;;;16.85;;
59008;SDS011;44794;42.652;23.318;2022-09-01T10:28:39;49.88;;;19.23;;
59008;SDS011;44794;42.652;23.318;2022-09-01T10:31:11;32.72;;;18.23;;
59008;SDS011;44794;42.652;23.318;2022-09-01T10:33:38;28.73;;;17.75;;
59008;SDS011;44794;42.652;23.318;2022-09-01T10:36:04;27.98;;;18.15;;
59008;SDS011;44794;42.652;23.318;2022-09-01T10:38:30;27.02;;;16.58;;
59008;SDS011;44794;42.652;23.318;2022-09-01T10:40:57;24.45;;;17.02;;
59008;SDS011;44794;42.652;23.318;2022-09-01T10:43:45;29.25;;;16.55;;
59008;SDS011;44794;42.652;23.318;2022-09-01T10:48:45;24.20;;;17.13;;
59008;SDS011;44794;42.652;23.318;2022-09-01T10:56:05;24.92;;;16.88;;
59008;SDS011;44794;42.652;23.318;2022-09-01T11:04:09;29.42;;;16.27;;
59008;SDS011;44794;42.652;23.318;2022-09-01T11:09:30;23.40;;;16.08;;
59008;SDS011;44794;42.652;23.318;2022-09-01T11:14:30;23.48;;;16.73;;
59008;SDS011;44794;42.652;23.318;2022-09-01T11:17:19;25.05;;;16.52;;
59008;SDS011;44794;42.652;23.318;2022-09-01T11:19:46;28.17;;;16.10;;
59008;SDS011;44794;42.652;23.318;2022-09-01T11:22:32;23.85;;;15.77;;
59008;SDS011;44794;42.652;23.318;2022-09-01T11:25:51;23.27;;;16.05;;
59008;SDS011;44794;42.652;23.318;2022-09-01T11:32:59;23.73;;;15.40;;
59008;SDS011;44794;42.652;23.318;2022-09-01T11:35:46;24.27;;;14.55;;
59008;SDS011;44794;42.652;23.318;2022-09-01T11:38:21;20.92;;;14.65;;
59008;SDS011;44794;42.652;23.318;2022-09-01T11:40:53;22.15;;;14.43;;
59008;SDS011;44794;42.652;23.318;2022-09-01T11:43:21;22.80;;;14.02;;
59008;SDS011;44794;42.652;23.318;2022-09-01T11:48:31;20.83;;;13.25;;
59008;SDS011;44794;42.652;23.318;2022-09-01T11:50:57;18.92;;;13.75;;
59008;SDS011;44794;42.652;23.318;2022-09-01T11:53:25;18.63;;;14.43;;
59008;SDS011;44794;42.652;23.318;2022-09-01T11:55:53;17.35;;;12.88;;
59008;SDS011;44794;42.652;23.318;2022-09-01T12:01:10;17.83;;;14.45;;
59008;SDS011;44794;42.652;23.318;2022-09-01T12:03:38;20.33;;;14.30;;
59008;SDS011;44794;42.652;23.318;2022-09-01T12:06:06;18.70;;;13.73;;
59008;SDS011;44794;42.652;23.318;2022-09-01T12:08:37;19.80;;;14.43;;
59008;SDS011;44794;42.652;23.318;2022-09-01T12:11:06;20.80;;;14.25;;
59008;SDS011;44794;42.652;23.318;2022-09-01T12:13:34;20.95;;;14.55;;
59008;SDS011;44794;42.652;23.318;2022-09-01T12:16:04;18.83;;;13.73;;
59008;SDS011;44794;42.652;23.318;2022-09-01T12:18:33;18.77;;;13.43;;
59008;SDS011;44794;42.652;23.318;2022-09-01T12:23:31;19.50;;;13.18;;
59008;SDS011;44794;42.652;23.318;2022-09-01T12:26:00;26.23;;;13.95;;
59008;SDS011;44794;42.652;23.318;2022-09-01T12:28:29;18.77;;;13.80;;
59008;SDS011;44794;42.652;23.318;2022-09-01T12:30:58;20.70;;;14.10;;
59008;SDS011;44794;42.652;23.318;2022-09-01T12:33:25;20.05;;;14.40;;
59008;SDS011;44794;42.652;23.318;2022-09-01T12:36:11;22.33;;;14.80;;
59008;SDS011;44794;42.652;23.318;2022-09-01T12:41:42;26.25;;;13.60;;
59008;SDS011;44794;42.652;23.318;2022-09-01T12:49:58;21.33;;;14.23;;
59008;SDS011;44794;42.652;23.318;2022-09-01T12:52:26;15.50;;;13.90;;
59008;SDS011;44794;42.652;23.318;2022-09-01T13:00:12;20.83;;;14.55;;
59008;SDS011;44794;42.652;23.318;2022-09-01T13:02:44;16.55;;;13.93;;
59008;SDS011;44794;42.652;23.318;2022-09-01T13:08:23;19.02;;;13.75;;
59008;SDS011;44794;42.652;23.318;2022-09-01T13:13:26;18.83;;;14.65;;
59008;SDS011;44794;42.652;23.318;2022-09-01T13:15:54;22.20;;;14.40;;
59008;SDS011;44794;42.652;23.318;2022-09-01T13:18:24;21.55;;;14.10;;
59008;SDS011;44794;42.652;23.318;2022-09-01T13:20:50;18.90;;;14.05;;
59008;SDS011;44794;42.652;23.318;2022-09-01T13:23:17;22.45;;;13.85;;
59008;SDS011;44794;42.652;23.318;2022-09-01T13:25:43;21.80;;;14.23;;
59008;SDS011;44794;42.652;23.318;2022-09-01T13:28:10;20.50;;;14.13;;
59008;SDS011;44794;42.652;23.318;2022-09-01T13:30:37;20.30;;;14.10;;
59008;SDS011;44794;42.652;23.318;2022-09-01T13:33:03;22.25;;;15.40;;
59008;SDS011;44794;42.652;23.318;2022-09-01T13:35:29;21.88;;;14.32;;
59008;SDS011;44794;42.652;23.318;2022-09-01T13:37:55;21.50;;;15.13;;
59008;SDS011;44794;42.652;23.318;2022-09-01T13:40:21;28.52;;;15.48;;
59008;SDS011;44794;42.652;23.318;2022-09-01T13:42:48;21.27;;;14.88;;
59008;SDS011;44794;42.652;23.318;2022-09-01T13:45:15;23.67;;;14.18;;
59008;SDS011;44794;42.652;23.318;2022-09-01T13:47:43;22.10;;;14.63;;
59008;SDS011;44794;42.652;23.318;2022-09-01T13:50:11;19.58;;;14.07;;
59008;SDS011;44794;42.652;23.318;2022-09-01T13:52:39;17.08;;;13.57;;
59008;SDS011;44794;42.652;23.318;2022-09-01T13:55:07;17.90;;;13.52;;
59008;SDS011;44794;42.652;23.318;2022-09-01T13:57:35;16.42;;;13.50;;
59008;SDS011;44794;42.652;23.318;2022-09-01T14:00:00;16.00;;;13.10;;
59008;SDS011;44794;42.652;23.318;2022-09-01T14:02:26;18.65;;;13.63;;
59008;SDS011;44794;42.652;23.318;2022-09-01T14:04:51;20.17;;;14.05;;
59008;SDS011;44794;42.652;23.318;2022-09-01T14:07:17;21.60;;;14.35;;
59008;SDS011;44794;42.652;23.318;2022-09-01T14:09:43;27.35;;;16.48;;
59008;SDS011;44794;42.652;23.318;2022-09-01T14:12:09;33.30;;;16.85;;
59008;SDS011;44794;42.652;23.318;2022-09-01T14:14:35;30.13;;;17.60;;
59008;SDS011;44794;42.652;23.318;2022-09-01T14:17:01;26.88;;;16.80;;
59008;SDS011;44794;42.652;23.318;2022-09-01T14:19:27;25.33;;;15.93;;
59008;SDS011;44794;42.652;23.318;2022-09-01T14:21:53;21.42;;;14.55;;
59008;SDS011;44794;42.652;23.318;2022-09-01T14:24:19;22.60;;;15.60;;
59008;SDS011;44794;42.652;23.318;2022-09-01T14:26:45;22.83;;;15.20;;
59008;SDS011;44794;42.652;23.318;2022-09-01T14:29:11;20.55;;;14.93;;
59008;SDS011;44794;42.652;23.318;2022-09-01T14:31:36;19.98;;;13.95;;
59008;SDS011;44794;42.652;23.318;2022-09-01T14:34:02;16.20;;;14.27;;
59008;SDS011;44794;42.652;23.318;2022-09-01T14:36:28;20.38;;;14.10;;
59008;SDS011;44794;42.652;23.318;2022-09-01T14:38:54;20.02;;;14.75;;
59008;SDS011;44794;42.652;23.318;2022-09-01T14:41:21;21.45;;;13.75;;
59008;SDS011;44794;42.652;23.318;2022-09-01T14:43:52;19.38;;;13.30;;
59008;SDS011;44794;42.652;23.318;2022-09-01T14:46:19;16.83;;;14.00;;
59008;SDS011;44794;42.652;23.318;2022-09-01T14:48:45;17.15;;;14.18;;
59008;SDS011;44794;42.652;23.318;2022-09-01T14:51:18;18.02;;;13.52;;
59008;SDS011;44794;42.652;23.318;2022-09-01T14:53:49;19.83;;;14.57;;
59008;SDS011;44794;42.652;23.318;2022-09-01T14:56:15;16.95;;;14.52;;
59008;SDS011;44794;42.652;23.318;2022-09-01T14:58:42;17.20;;;13.52;;
59008;SDS011;44794;42.652;23.318;2022-09-01T15:01:11;18.58;;;13.65;;
59008;SDS011;44794;42.652;23.318;2022-09-01T15:03:38;18.38;;;14.60;;
59008;SDS011;44794;42.652;23.318;2022-09-01T15:06:03;17.02;;;13.38;;
59008;SDS011;44794;42.652;23.318;2022-09-01T15:08:29;16.38;;;13.55;;
59008;SDS011;44794;42.652;23.318;2022-09-01T15:10:54;17.45;;;13.43;;
59008;SDS011;44794;42.652;23.318;2022-09-01T15:13:20;17.63;;;13.57;;
59008;SDS011;44794;42.652;23.318;2022-09-01T15:15:45;16.45;;;14.23;;
59008;SDS011;44794;42.652;23.318;2022-09-01T15:18:11;21.17;;;15.75;;
59008;SDS011;44794;42.652;23.318;2022-09-01T15:20:40;19.13;;;14.55;;
59008;SDS011;44794;42.652;23.318;2022-09-01T15:23:10;19.45;;;14.63;;
59008;SDS011;44794;42.652;23.318;2022-09-01T15:25:44;18.63;;;14.40;;
59008;SDS011;44794;42.652;23.318;2022-09-01T15:28:10;20.25;;;14.32;;
59008;SDS011;44794;42.652;23.318;2022-09-01T15:30:36;18.80;;;14.85;;
59008;SDS011;44794;42.652;23.318;2022-09-01T15:33:04;22.58;;;16.08;;
59008;SDS011;44794;42.652;23.318;2022-09-01T15:35:30;20.63;;;14.85;;
59008;SDS011;44794;42.652;23.318;2022-09-01T15:37:56;19.30;;;14.85;;
59008;SDS011;44794;42.652;23.318;2022-09-01T15:40:23;19.77;;;14.95;;
59008;SDS011;44794;42.652;23.318;2022-09-01T15:42:49;24.83;;;16.45;;
59008;SDS011;44794;42.652;23.318;2022-09-01T15:45:17;20.70;;;15.43;;
59008;SDS011;44794;42.652;23.318;2022-09-01T15:47:44;21.30;;;15.98;;
59008;SDS011;44794;42.652;23.318;2022-09-01T15:50:13;23.65;;;16.58;;
59008;SDS011;44794;42.652;23.318;2022-09-01T15:52:53;19.83;;;16.40;;
59008;SDS011;44794;42.652;23.318;2022-09-01T15:55:36;20.65;;;16.25;;
59008;SDS011;44794;42.652;23.318;2022-09-01T15:58:05;27.38;;;16.95;;